sensor_id;sensor_type;location;lat;lon;timestamp;temperature;humidity
20422;DHT22;10370;53.102;18.034;2023-04-15T00:02:50;10.00;99.90
20422;DHT22;10370;53.102;18.034;2023-04-15T00:08:14;9.90;99.90
20422;DHT22;10370;53.102;18.034;2023-04-15T00:13:39;9.90;99.90
20422;DHT22;10370;53.102;18.034;2023-04-15T00:19:04;9.70;99.90
20422;DHT22;10370;53.102;18.034;2023-04-15T00:24:29;9.70;99.90
20422;DHT22;10370;53.102;18.034;2023-04-15T00:29:56;9.70;99.90
20422;DHT22;10370;53.102;18.034;2023-04-15T00:35:21;9.60;99.90
20422;DHT22;10370;53.102;18.034;2023-04-15T00:40:47;9.60;99.90
20422;DHT22;10370;53.102;18.034;2023-04-15T00:46:13;9.50;99.90
20422;DHT22;10370;53.102;18.034;2023-04-15T00:51:39;9.50;99.90
20422;DHT22;10370;53.102;18.034;2023-04-15T00:57:07;9.40;99.90
20422;DHT22;10370;53.102;18.034;2023-04-15T01:14:00;9.40;99.90
20422;DHT22;10370;53.102;18.034;2023-04-15T01:19:38;9.40;99.90
20422;DHT22;10370;53.102;18.034;2023-04-15T01:25:31;9.40;99.90
20422;DHT22;10370;53.102;18.034;2023-04-15T01:31:25;9.40;99.90
20422;DHT22;10370;53.102;18.034;2023-04-15T01:36:47;9.50;99.90
20422;DHT22;10370;53.102;18.034;2023-04-15T01:42:32;9.50;99.90
20422;DHT22;10370;53.102;18.034;2023-04-15T01:48:21;9.50;99.90
20422;DHT22;10370;53.102;18.034;2023-04-15T01:54:27;9.40;99.90
20422;DHT22;10370;53.102;18.034;2023-04-15T02:00:15;9.40;99.90
20422;DHT22;10370;53.102;18.034;2023-04-15T02:06:18;9.40;99.90
20422;DHT22;10370;53.102;18.034;2023-04-15T02:11:49;9.30;99.90
20422;DHT22;10370;53.102;18.034;2023-04-15T02:17:26;9.40;99.90
20422;DHT22;10370;53.102;18.034;2023-04-15T02:23:13;9.30;99.90
20422;DHT22;10370;53.102;18.034;2023-04-15T02:29:11;9.40;99.90
20422;DHT22;10370;53.102;18.034;2023-04-15T02:35:00;9.40;99.90
20422;DHT22;10370;53.102;18.034;2023-04-15T02:40:45;9.50;99.90
20422;DHT22;10370;53.102;18.034;2023-04-15T02:46:13;9.60;99.90
20422;DHT22;10370;53.102;18.034;2023-04-15T02:51:45;9.60;99.90
20422;DHT22;10370;53.102;18.034;2023-04-15T02:57:34;9.70;99.90
20422;DHT22;10370;53.102;18.034;2023-04-15T04:04:35;10.30;99.90
20422;DHT22;10370;53.102;18.034;2023-04-15T04:10:19;10.00;99.90
20422;DHT22;10370;53.102;18.034;2023-04-15T04:16:06;10.00;99.90
20422;DHT22;10370;53.102;18.034;2023-04-15T04:21:51;10.00;99.90
20422;DHT22;10370;53.102;18.034;2023-04-15T04:27:36;10.00;99.90
20422;DHT22;10370;53.102;18.034;2023-04-15T04:33:27;10.10;99.90
20422;DHT22;10370;53.102;18.034;2023-04-15T04:39:10;10.10;99.90
20422;DHT22;10370;53.102;18.034;2023-04-15T04:44:56;10.10;99.90
20422;DHT22;10370;53.102;18.034;2023-04-15T04:50:24;10.10;99.90
20422;DHT22;10370;53.102;18.034;2023-04-15T04:55:56;10.20;99.90
20422;DHT22;10370;53.102;18.034;2023-04-15T05:01:37;10.20;99.90
20422;DHT22;10370;53.102;18.034;2023-04-15T05:07:11;10.20;99.90
20422;DHT22;10370;53.102;18.034;2023-04-15T05:12:45;11.10;99.90
20422;DHT22;10370;53.102;18.034;2023-04-15T05:18:36;10.40;99.90
20422;DHT22;10370;53.102;18.034;2023-04-15T05:24:25;10.30;99.90
20422;DHT22;10370;53.102;18.034;2023-04-15T05:30:11;10.30;99.90
20422;DHT22;10370;53.102;18.034;2023-04-15T05:35:48;10.30;99.90
20422;DHT22;10370;53.102;18.034;2023-04-15T05:41:35;10.30;99.90
20422;DHT22;10370;53.102;18.034;2023-04-15T05:47:30;9.90;99.90
20422;DHT22;10370;53.102;18.034;2023-04-15T05:53:20;10.30;99.90
20422;DHT22;10370;53.102;18.034;2023-04-15T05:58:57;10.20;99.90
20422;DHT22;10370;53.102;18.034;2023-04-15T06:04:51;10.30;99.90
20422;DHT22;10370;53.102;18.034;2023-04-15T06:10:29;10.00;99.90
20422;DHT22;10370;53.102;18.034;2023-04-15T06:16:31;10.50;99.90
20422;DHT22;10370;53.102;18.034;2023-04-15T06:22:06;10.00;99.90
20422;DHT22;10370;53.102;18.034;2023-04-15T06:28:01;10.70;99.90
20422;DHT22;10370;53.102;18.034;2023-04-15T06:33:51;9.90;99.90
20422;DHT22;10370;53.102;18.034;2023-04-15T06:39:27;9.80;99.90
20422;DHT22;10370;53.102;18.034;2023-04-15T06:45:17;9.80;99.90
20422;DHT22;10370;53.102;18.034;2023-04-15T06:50:52;9.70;99.90
20422;DHT22;10370;53.102;18.034;2023-04-15T06:56:47;9.70;99.90
20422;DHT22;10370;53.102;18.034;2023-04-15T07:02:48;9.60;99.90
20422;DHT22;10370;53.102;18.034;2023-04-15T07:08:53;9.70;99.90
20422;DHT22;10370;53.102;18.034;2023-04-15T07:14:45;9.70;99.90
20422;DHT22;10370;53.102;18.034;2023-04-15T07:20:31;9.60;99.90
20422;DHT22;10370;53.102;18.034;2023-04-15T07:26:37;9.50;99.90
20422;DHT22;10370;53.102;18.034;2023-04-15T07:32:46;9.50;99.90
20422;DHT22;10370;53.102;18.034;2023-04-15T07:38:58;9.90;99.90
20422;DHT22;10370;53.102;18.034;2023-04-15T07:44:56;9.70;99.90
20422;DHT22;10370;53.102;18.034;2023-04-15T07:50:47;9.60;99.90
20422;DHT22;10370;53.102;18.034;2023-04-15T08:03:11;9.70;99.90
20422;DHT22;10370;53.102;18.034;2023-04-15T08:09:16;9.70;99.90
20422;DHT22;10370;53.102;18.034;2023-04-15T08:14:57;9.90;99.90
20422;DHT22;10370;53.102;18.034;2023-04-15T08:20:39;10.10;99.90
20422;DHT22;10370;53.102;18.034;2023-04-15T08:26:19;9.90;99.90
20422;DHT22;10370;53.102;18.034;2023-04-15T08:32:17;10.00;99.90
20422;DHT22;10370;53.102;18.034;2023-04-15T08:38:17;10.10;99.90
20422;DHT22;10370;53.102;18.034;2023-04-15T08:44:13;10.10;99.90
20422;DHT22;10370;53.102;18.034;2023-04-15T08:50:12;10.20;99.90
20422;DHT22;10370;53.102;18.034;2023-04-15T08:56:10;10.10;99.90
20422;DHT22;10370;53.102;18.034;2023-04-15T09:01:50;10.10;99.90
20422;DHT22;10370;53.102;18.034;2023-04-15T09:07:18;10.20;99.90
20422;DHT22;10370;53.102;18.034;2023-04-15T09:12:45;10.10;99.90
20422;DHT22;10370;53.102;18.034;2023-04-15T09:18:33;10.10;99.90
20422;DHT22;10370;53.102;18.034;2023-04-15T09:24:19;10.00;99.90
20422;DHT22;10370;53.102;18.034;2023-04-15T09:29:56;10.10;99.90
20422;DHT22;10370;53.102;18.034;2023-04-15T09:35:23;10.20;99.90
20422;DHT22;10370;53.102;18.034;2023-04-15T09:40:54;10.40;99.90
20422;DHT22;10370;53.102;18.034;2023-04-15T09:46:44;10.40;99.90
20422;DHT22;10370;53.102;18.034;2023-04-15T09:52:39;10.50;99.90
20422;DHT22;10370;53.102;18.034;2023-04-15T09:58:08;10.50;99.90
20422;DHT22;10370;53.102;18.034;2023-04-15T10:03:34;10.50;99.90
20422;DHT22;10370;53.102;18.034;2023-04-15T10:09:17;10.60;99.90
20422;DHT22;10370;53.102;18.034;2023-04-15T10:15:15;10.60;99.90
20422;DHT22;10370;53.102;18.034;2023-04-15T10:21:07;10.60;99.90
20422;DHT22;10370;53.102;18.034;2023-04-15T10:26:53;10.50;99.90
20422;DHT22;10370;53.102;18.034;2023-04-15T10:32:39;10.50;99.90
20422;DHT22;10370;53.102;18.034;2023-04-15T10:38:42;10.40;99.90
20422;DHT22;10370;53.102;18.034;2023-04-15T10:44:28;10.30;99.90
20422;DHT22;10370;53.102;18.034;2023-04-15T10:49:56;10.40;99.90
20422;DHT22;10370;53.102;18.034;2023-04-15T10:55:34;10.30;99.90
20422;DHT22;10370;53.102;18.034;2023-04-15T11:01:21;10.30;99.90
20422;DHT22;10370;53.102;18.034;2023-04-15T11:07:04;10.30;99.90
20422;DHT22;10370;53.102;18.034;2023-04-15T11:12:37;10.20;99.90
20422;DHT22;10370;53.102;18.034;2023-04-15T11:18:23;10.20;99.90
20422;DHT22;10370;53.102;18.034;2023-04-15T11:24:08;10.20;99.90
20422;DHT22;10370;53.102;18.034;2023-04-15T11:29:55;10.10;99.90
20422;DHT22;10370;53.102;18.034;2023-04-15T11:35:41;10.20;99.90
20422;DHT22;10370;53.102;18.034;2023-04-15T11:41:26;10.30;99.90
20422;DHT22;10370;53.102;18.034;2023-04-15T11:46:55;10.40;99.90
20422;DHT22;10370;53.102;18.034;2023-04-15T11:52:40;10.40;99.90
20422;DHT22;10370;53.102;18.034;2023-04-15T11:58:26;10.40;99.90
20422;DHT22;10370;53.102;18.034;2023-04-15T12:04:12;10.30;99.90
20422;DHT22;10370;53.102;18.034;2023-04-15T12:09:58;10.40;99.90
20422;DHT22;10370;53.102;18.034;2023-04-15T12:15:23;10.40;99.90
20422;DHT22;10370;53.102;18.034;2023-04-15T12:20:48;10.50;99.90
20422;DHT22;10370;53.102;18.034;2023-04-15T12:26:18;10.40;99.90
20422;DHT22;10370;53.102;18.034;2023-04-15T12:32:10;10.50;99.90
20422;DHT22;10370;53.102;18.034;2023-04-15T12:37:35;10.60;99.90
20422;DHT22;10370;53.102;18.034;2023-04-15T12:43:00;10.50;99.90
20422;DHT22;10370;53.102;18.034;2023-04-15T12:48:28;10.60;99.90
20422;DHT22;10370;53.102;18.034;2023-04-15T12:54:13;10.70;99.90
20422;DHT22;10370;53.102;18.034;2023-04-15T13:00:00;10.60;99.90
20422;DHT22;10370;53.102;18.034;2023-04-15T13:05:24;10.50;99.90
20422;DHT22;10370;53.102;18.034;2023-04-15T13:10:51;10.50;99.90
20422;DHT22;10370;53.102;18.034;2023-04-15T13:16:23;10.60;99.90
20422;DHT22;10370;53.102;18.034;2023-04-15T13:22:08;10.60;99.90
20422;DHT22;10370;53.102;18.034;2023-04-15T13:27:33;10.60;99.90
20422;DHT22;10370;53.102;18.034;2023-04-15T13:33:18;10.60;99.90
20422;DHT22;10370;53.102;18.034;2023-04-15T13:38:43;10.70;99.90
20422;DHT22;10370;53.102;18.034;2023-04-15T13:44:11;10.70;99.90
20422;DHT22;10370;53.102;18.034;2023-04-15T13:49:32;10.80;99.90
20422;DHT22;10370;53.102;18.034;2023-04-15T13:55:15;10.70;99.90
20422;DHT22;10370;53.102;18.034;2023-04-15T14:00:59;10.60;99.90
20422;DHT22;10370;53.102;18.034;2023-04-15T14:06:40;10.60;99.90
20422;DHT22;10370;53.102;18.034;2023-04-15T14:12:24;10.70;99.90
20422;DHT22;10370;53.102;18.034;2023-04-15T14:17:47;10.60;99.90
20422;DHT22;10370;53.102;18.034;2023-04-15T14:23:31;10.60;99.90
20422;DHT22;10370;53.102;18.034;2023-04-15T14:29:12;10.70;99.90
20422;DHT22;10370;53.102;18.034;2023-04-15T14:34:55;10.60;99.90
20422;DHT22;10370;53.102;18.034;2023-04-15T14:40:40;10.50;99.90
20422;DHT22;10370;53.102;18.034;2023-04-15T14:46:24;10.60;99.90
20422;DHT22;10370;53.102;18.034;2023-04-15T14:52:09;10.60;99.90
20422;DHT22;10370;53.102;18.034;2023-04-15T14:57:54;10.60;99.90
20422;DHT22;10370;53.102;18.034;2023-04-15T15:03:39;10.50;99.90
20422;DHT22;10370;53.102;18.034;2023-04-15T15:09:22;10.40;99.90
20422;DHT22;10370;53.102;18.034;2023-04-15T15:14:48;10.40;99.90
20422;DHT22;10370;53.102;18.034;2023-04-15T15:20:47;10.30;99.90
20422;DHT22;10370;53.102;18.034;2023-04-15T15:26:30;10.30;99.90
20422;DHT22;10370;53.102;18.034;2023-04-15T15:32:14;10.40;99.90
20422;DHT22;10370;53.102;18.034;2023-04-15T15:37:59;10.40;99.90
20422;DHT22;10370;53.102;18.034;2023-04-15T15:43:39;10.40;99.90
20422;DHT22;10370;53.102;18.034;2023-04-15T15:49:20;10.50;99.90
20422;DHT22;10370;53.102;18.034;2023-04-15T15:55:04;10.50;99.90
20422;DHT22;10370;53.102;18.034;2023-04-15T16:00:47;10.50;99.90
20422;DHT22;10370;53.102;18.034;2023-04-15T16:06:10;10.50;99.90
20422;DHT22;10370;53.102;18.034;2023-04-15T16:11:33;10.40;99.90
20422;DHT22;10370;53.102;18.034;2023-04-15T16:17:16;10.40;99.90
20422;DHT22;10370;53.102;18.034;2023-04-15T16:23:02;10.40;99.90
20422;DHT22;10370;53.102;18.034;2023-04-15T16:28:26;10.40;99.90
20422;DHT22;10370;53.102;18.034;2023-04-15T16:33:47;10.40;99.90
20422;DHT22;10370;53.102;18.034;2023-04-15T16:39:29;10.30;99.90
20422;DHT22;10370;53.102;18.034;2023-04-15T16:45:11;10.30;99.90
20422;DHT22;10370;53.102;18.034;2023-04-15T16:50:52;10.20;99.90
20422;DHT22;10370;53.102;18.034;2023-04-15T16:56:35;10.30;99.90
20422;DHT22;10370;53.102;18.034;2023-04-15T17:01:56;10.20;99.90
20422;DHT22;10370;53.102;18.034;2023-04-15T17:07:18;10.20;99.90
20422;DHT22;10370;53.102;18.034;2023-04-15T17:12:40;10.20;99.90
20422;DHT22;10370;53.102;18.034;2023-04-15T17:18:05;10.10;99.90
20422;DHT22;10370;53.102;18.034;2023-04-15T17:23:26;10.10;99.90
20422;DHT22;10370;53.102;18.034;2023-04-15T17:29:10;10.10;99.90
20422;DHT22;10370;53.102;18.034;2023-04-15T17:34:52;10.00;99.90
20422;DHT22;10370;53.102;18.034;2023-04-15T17:40:15;10.00;99.90
20422;DHT22;10370;53.102;18.034;2023-04-15T17:45:56;10.00;99.90
20422;DHT22;10370;53.102;18.034;2023-04-15T17:51:37;9.90;99.90
20422;DHT22;10370;53.102;18.034;2023-04-15T17:57:01;9.90;99.90
20422;DHT22;10370;53.102;18.034;2023-04-15T18:02:24;9.90;99.90
20422;DHT22;10370;53.102;18.034;2023-04-15T18:07:50;9.90;99.90
20422;DHT22;10370;53.102;18.034;2023-04-15T18:13:12;9.90;99.90
20422;DHT22;10370;53.102;18.034;2023-04-15T18:18:55;9.90;99.90
20422;DHT22;10370;53.102;18.034;2023-04-15T18:24:20;9.80;99.90
20422;DHT22;10370;53.102;18.034;2023-04-15T18:30:06;9.90;99.90
20422;DHT22;10370;53.102;18.034;2023-04-15T18:35:51;9.90;99.90
20422;DHT22;10370;53.102;18.034;2023-04-15T18:41:34;9.80;99.90
20422;DHT22;10370;53.102;18.034;2023-04-15T18:47:20;9.80;99.90
20422;DHT22;10370;53.102;18.034;2023-04-15T18:53:03;9.80;99.90
20422;DHT22;10370;53.102;18.034;2023-04-15T18:58:26;9.80;99.90
20422;DHT22;10370;53.102;18.034;2023-04-15T19:03:48;9.70;99.90
20422;DHT22;10370;53.102;18.034;2023-04-15T19:09:31;9.80;99.90
20422;DHT22;10370;53.102;18.034;2023-04-15T19:15:15;9.80;99.90
20422;DHT22;10370;53.102;18.034;2023-04-15T19:21:01;9.70;99.90
20422;DHT22;10370;53.102;18.034;2023-04-15T19:26:25;9.70;99.90
20422;DHT22;10370;53.102;18.034;2023-04-15T19:31:50;9.70;99.90
20422;DHT22;10370;53.102;18.034;2023-04-15T19:37:33;9.70;99.90
20422;DHT22;10370;53.102;18.034;2023-04-15T19:42:59;9.80;99.90
20422;DHT22;10370;53.102;18.034;2023-04-15T19:48:24;9.70;99.90
20422;DHT22;10370;53.102;18.034;2023-04-15T19:53:45;9.70;99.90
20422;DHT22;10370;53.102;18.034;2023-04-15T19:59:06;9.70;99.90
20422;DHT22;10370;53.102;18.034;2023-04-15T20:04:28;9.70;99.90
20422;DHT22;10370;53.102;18.034;2023-04-15T20:10:09;9.60;99.90
20422;DHT22;10370;53.102;18.034;2023-04-15T20:15:50;9.60;99.90
20422;DHT22;10370;53.102;18.034;2023-04-15T20:21:31;9.60;99.90
20422;DHT22;10370;53.102;18.034;2023-04-15T20:27:12;9.60;99.90
20422;DHT22;10370;53.102;18.034;2023-04-15T20:32:55;9.60;99.90
20422;DHT22;10370;53.102;18.034;2023-04-15T20:38:39;9.60;99.90
20422;DHT22;10370;53.102;18.034;2023-04-15T20:44:02;9.60;99.90
20422;DHT22;10370;53.102;18.034;2023-04-15T20:49:25;9.60;99.90
20422;DHT22;10370;53.102;18.034;2023-04-15T20:54:51;9.60;99.90
20422;DHT22;10370;53.102;18.034;2023-04-15T21:00:15;9.60;99.90
20422;DHT22;10370;53.102;18.034;2023-04-15T21:05:46;9.60;99.90
20422;DHT22;10370;53.102;18.034;2023-04-15T21:11:32;9.50;99.90
20422;DHT22;10370;53.102;18.034;2023-04-15T21:17:22;9.60;99.90
20422;DHT22;10370;53.102;18.034;2023-04-15T21:22:47;9.50;99.90
20422;DHT22;10370;53.102;18.034;2023-04-15T21:28:11;9.50;99.90
20422;DHT22;10370;53.102;18.034;2023-04-15T21:33:35;9.50;99.90
20422;DHT22;10370;53.102;18.034;2023-04-15T21:39:21;9.50;99.90
20422;DHT22;10370;53.102;18.034;2023-04-15T21:45:05;9.50;99.90
20422;DHT22;10370;53.102;18.034;2023-04-15T21:50:59;9.40;99.90
20422;DHT22;10370;53.102;18.034;2023-04-15T21:56:42;9.40;99.90
20422;DHT22;10370;53.102;18.034;2023-04-15T22:02:23;9.40;99.90
20422;DHT22;10370;53.102;18.034;2023-04-15T22:08:09;9.40;99.90
20422;DHT22;10370;53.102;18.034;2023-04-15T22:13:35;9.40;99.90
20422;DHT22;10370;53.102;18.034;2023-04-15T22:18:58;9.40;99.90
20422;DHT22;10370;53.102;18.034;2023-04-15T22:24:23;9.40;99.90
20422;DHT22;10370;53.102;18.034;2023-04-15T22:30:08;9.30;99.90
20422;DHT22;10370;53.102;18.034;2023-04-15T22:35:51;9.30;99.90
20422;DHT22;10370;53.102;18.034;2023-04-15T22:41:38;9.30;99.90
20422;DHT22;10370;53.102;18.034;2023-04-15T22:47:04;9.30;99.90
20422;DHT22;10370;53.102;18.034;2023-04-15T22:52:30;9.30;99.90
20422;DHT22;10370;53.102;18.034;2023-04-15T22:57:57;9.30;99.90
20422;DHT22;10370;53.102;18.034;2023-04-15T23:03:43;9.20;99.90
20422;DHT22;10370;53.102;18.034;2023-04-15T23:09:44;9.20;99.90
20422;DHT22;10370;53.102;18.034;2023-04-15T23:15:29;9.20;99.90
20422;DHT22;10370;53.102;18.034;2023-04-15T23:21:14;9.10;99.90
20422;DHT22;10370;53.102;18.034;2023-04-15T23:26:59;9.20;99.90
20422;DHT22;10370;53.102;18.034;2023-04-15T23:32:44;9.10;99.90
20422;DHT22;10370;53.102;18.034;2023-04-15T23:38:07;9.10;99.90
20422;DHT22;10370;53.102;18.034;2023-04-15T23:43:32;9.10;99.90
20422;DHT22;10370;53.102;18.034;2023-04-15T23:49:00;9.10;99.90
20422;DHT22;10370;53.102;18.034;2023-04-15T23:54:24;9.10;99.90
